Urb Torrimar, Puerto Rico
Current Conditions -  °F | °C
As of 9:56 PM on Saturday 25 Oct 2014 (Local Time) from TJSJ Reporting Station
Few Clouds Few Clouds  
Wind Chill: 83°   Ceiling: Unl
Heat Index: 91°   Visibility: 10mi
Dew Point: 76°   Wind: 6mph
Humidity: 79%   Direction: 180°S
Pressure: 29.9"   Gusts: NA
Location:  18.3882°N, 66.1144°W
Report Text: TJSJ 260156Z 18005KT 10SM FEW028 28/24 A2990 RMK AO2 SLP124 T02830244
Loading
Personal Weather Stations






























Interactive Weather Map
Tropical Storm Tracking
New forecast layout! Learn more

10-Day Weather Forecast

Advertisements
Track Severe Weather on mobile